Savanna, Illinois
Current Conditions -  °F | °C
As of 3:55 AM on Tuesday 21 Oct 2014 (Local Time) from KSFY Reporting Station
Clear Clear  
Wind Chill: 39°   Ceiling: Unl
Heat Index: 39°   Visibility: 10mi
Dew Point: 38°   Wind: 3mph
Humidity: 95%   Direction: 350°N
Pressure: 30.08"   Gusts: NA
Location:  42.09°N, 90.16°W
Report Text: KSFY 210855Z AUTO 35003KT 10SM CLR 04/03 A3008 RMK AO2 T00400033
Loading
Personal Weather Stations






























Interactive Weather Map
Tropical Storm Tracking
New forecast layout! Learn more

10-Day Weather Forecast

Advertisements
Track Severe Weather on mobile